sensor_id;sensor_type;location;lat;lon;timestamp;temperature;humidity
36716;DHT22;22699;51.034;3.730;2023-03-24T00:01:43;13.80;99.90
36716;DHT22;22699;51.034;3.730;2023-03-24T00:04:12;13.70;99.90
36716;DHT22;22699;51.034;3.730;2023-03-24T00:06:44;13.70;99.90
36716;DHT22;22699;51.034;3.730;2023-03-24T00:09:19;13.70;99.90
36716;DHT22;22699;51.034;3.730;2023-03-24T00:12:09;13.70;99.90
36716;DHT22;22699;51.034;3.730;2023-03-24T00:14:37;13.60;99.90
36716;DHT22;22699;51.034;3.730;2023-03-24T00:17:13;13.70;99.90
36716;DHT22;22699;51.034;3.730;2023-03-24T00:19:40;13.70;99.90
36716;DHT22;22699;51.034;3.730;2023-03-24T00:22:09;13.70;99.90
36716;DHT22;22699;51.034;3.730;2023-03-24T00:24:56;13.70;99.90
36716;DHT22;22699;51.034;3.730;2023-03-24T00:27:30;13.80;99.90
36716;DHT22;22699;51.034;3.730;2023-03-24T00:30:05;13.80;99.90
36716;DHT22;22699;51.034;3.730;2023-03-24T00:32:32;13.80;99.90
36716;DHT22;22699;51.034;3.730;2023-03-24T00:34:58;13.80;99.90
36716;DHT22;22699;51.034;3.730;2023-03-24T00:37:26;13.80;99.90
36716;DHT22;22699;51.034;3.730;2023-03-24T00:39:53;13.90;99.90
36716;DHT22;22699;51.034;3.730;2023-03-24T00:42:19;13.90;99.90
36716;DHT22;22699;51.034;3.730;2023-03-24T00:45:08;13.70;99.90
36716;DHT22;22699;51.034;3.730;2023-03-24T00:47:38;13.70;99.90
36716;DHT22;22699;51.034;3.730;2023-03-24T00:50:14;13.90;99.90
36716;DHT22;22699;51.034;3.730;2023-03-24T00:52:56;13.90;99.90
36716;DHT22;22699;51.034;3.730;2023-03-24T00:55:22;13.70;99.90
36716;DHT22;22699;51.034;3.730;2023-03-24T00:57:48;13.60;99.90
36716;DHT22;22699;51.034;3.730;2023-03-24T01:00:19;13.50;99.90
36716;DHT22;22699;51.034;3.730;2023-03-24T01:02:47;13.40;99.90
36716;DHT22;22699;51.034;3.730;2023-03-24T01:05:28;13.40;99.90
36716;DHT22;22699;51.034;3.730;2023-03-24T01:08:00;13.30;99.90
36716;DHT22;22699;51.034;3.730;2023-03-24T01:10:33;13.30;99.90
36716;DHT22;22699;51.034;3.730;2023-03-24T01:13:21;13.20;99.90
36716;DHT22;22699;51.034;3.730;2023-03-24T01:15:48;13.10;99.90
36716;DHT22;22699;51.034;3.730;2023-03-24T01:18:15;13.10;99.90
36716;DHT22;22699;51.034;3.730;2023-03-24T01:20:45;13.10;99.90
36716;DHT22;22699;51.034;3.730;2023-03-24T01:23:16;13.30;99.90
36716;DHT22;22699;51.034;3.730;2023-03-24T01:25:49;13.20;99.90
36716;DHT22;22699;51.034;3.730;2023-03-24T01:28:22;13.00;99.90
36716;DHT22;22699;51.034;3.730;2023-03-24T01:30:55;13.00;99.90
36716;DHT22;22699;51.034;3.730;2023-03-24T01:33:21;12.90;99.90
36716;DHT22;22699;51.034;3.730;2023-03-24T01:35:49;12.90;99.90
36716;DHT22;22699;51.034;3.730;2023-03-24T01:38:23;12.80;99.90
36716;DHT22;22699;51.034;3.730;2023-03-24T01:40:48;12.80;99.90
36716;DHT22;22699;51.034;3.730;2023-03-24T01:43:27;12.70;99.90
36716;DHT22;22699;51.034;3.730;2023-03-24T01:48:36;12.60;99.90
36716;DHT22;22699;51.034;3.730;2023-03-24T01:54:34;12.50;99.90
36716;DHT22;22699;51.034;3.730;2023-03-24T01:57:33;12.50;99.90
36716;DHT22;22699;51.034;3.730;2023-03-24T02:00:06;12.40;99.90
36716;DHT22;22699;51.034;3.730;2023-03-24T02:02:35;12.30;99.90
36716;DHT22;22699;51.034;3.730;2023-03-24T02:05:20;12.30;99.90
36716;DHT22;22699;51.034;3.730;2023-03-24T02:10:33;12.30;99.90
36716;DHT22;22699;51.034;3.730;2023-03-24T02:13:02;12.20;99.90
36716;DHT22;22699;51.034;3.730;2023-03-24T02:15:32;12.20;99.90
36716;DHT22;22699;51.034;3.730;2023-03-24T02:18:36;12.20;99.90
36716;DHT22;22699;51.034;3.730;2023-03-24T02:24:55;12.40;99.90
36716;DHT22;22699;51.034;3.730;2023-03-24T02:30:48;12.20;99.90
36716;DHT22;22699;51.034;3.730;2023-03-24T02:36:52;11.90;99.90
36716;DHT22;22699;51.034;3.730;2023-03-24T02:46:08;11.80;99.90
36716;DHT22;22699;51.034;3.730;2023-03-24T02:49:17;11.70;99.90
36716;DHT22;22699;51.034;3.730;2023-03-24T02:52:11;11.70;99.90
36716;DHT22;22699;51.034;3.730;2023-03-24T02:57:56;11.70;99.90
36716;DHT22;22699;51.034;3.730;2023-03-24T03:00:47;11.70;99.90
36716;DHT22;22699;51.034;3.730;2023-03-24T03:03:39;11.70;99.90
36716;DHT22;22699;51.034;3.730;2023-03-24T03:06:20;11.70;99.90
36716;DHT22;22699;51.034;3.730;2023-03-24T03:08:50;11.60;99.90
36716;DHT22;22699;51.034;3.730;2023-03-24T03:11:20;11.60;99.90
36716;DHT22;22699;51.034;3.730;2023-03-24T03:14:20;11.60;99.90
36716;DHT22;22699;51.034;3.730;2023-03-24T03:17:04;11.70;99.90
36716;DHT22;22699;51.034;3.730;2023-03-24T03:19:41;11.60;99.90
36716;DHT22;22699;51.034;3.730;2023-03-24T03:22:38;11.50;99.90
36716;DHT22;22699;51.034;3.730;2023-03-24T03:25:43;11.50;99.90
36716;DHT22;22699;51.034;3.730;2023-03-24T03:28:22;11.50;99.90
36716;DHT22;22699;51.034;3.730;2023-03-24T03:30:56;11.40;99.90
36716;DHT22;22699;51.034;3.730;2023-03-24T03:34:02;11.40;99.90
36716;DHT22;22699;51.034;3.730;2023-03-24T03:40:08;11.40;99.90
36716;DHT22;22699;51.034;3.730;2023-03-24T03:42:58;11.40;99.90
36716;DHT22;22699;51.034;3.730;2023-03-24T03:45:24;11.30;99.90
36716;DHT22;22699;51.034;3.730;2023-03-24T03:47:59;11.30;99.90
36716;DHT22;22699;51.034;3.730;2023-03-24T03:50:30;11.20;99.90
36716;DHT22;22699;51.034;3.730;2023-03-24T03:52:57;11.20;99.90
36716;DHT22;22699;51.034;3.730;2023-03-24T03:55:23;11.20;99.90
36716;DHT22;22699;51.034;3.730;2023-03-24T03:57:48;11.10;99.90
36716;DHT22;22699;51.034;3.730;2023-03-24T04:00:18;11.10;99.90
36716;DHT22;22699;51.034;3.730;2023-03-24T04:03:16;11.10;99.90
36716;DHT22;22699;51.034;3.730;2023-03-24T04:06:10;11.10;99.90
36716;DHT22;22699;51.034;3.730;2023-03-24T04:22:15;11.20;99.90
36716;DHT22;22699;51.034;3.730;2023-03-24T04:30:45;11.00;99.90
36716;DHT22;22699;51.034;3.730;2023-03-24T04:33:19;11.00;99.90
36716;DHT22;22699;51.034;3.730;2023-03-24T04:36:13;11.00;99.90
36716;DHT22;22699;51.034;3.730;2023-03-24T04:38:49;11.10;99.90
36716;DHT22;22699;51.034;3.730;2023-03-24T04:41:25;11.40;99.90
36716;DHT22;22699;51.034;3.730;2023-03-24T04:43:53;11.10;99.90
36716;DHT22;22699;51.034;3.730;2023-03-24T04:46:23;11.10;99.90
36716;DHT22;22699;51.034;3.730;2023-03-24T04:48:53;11.10;99.90
36716;DHT22;22699;51.034;3.730;2023-03-24T04:51:21;11.00;99.90
36716;DHT22;22699;51.034;3.730;2023-03-24T04:53:47;11.00;99.90
36716;DHT22;22699;51.034;3.730;2023-03-24T04:56:43;11.00;99.90
36716;DHT22;22699;51.034;3.730;2023-03-24T04:59:21;11.00;99.90
36716;DHT22;22699;51.034;3.730;2023-03-24T05:01:47;11.00;99.90
36716;DHT22;22699;51.034;3.730;2023-03-24T05:04:20;10.90;99.90
36716;DHT22;22699;51.034;3.730;2023-03-24T05:07:10;10.80;99.90
36716;DHT22;22699;51.034;3.730;2023-03-24T05:09:42;10.80;99.90
36716;DHT22;22699;51.034;3.730;2023-03-24T05:12:20;10.90;99.90
36716;DHT22;22699;51.034;3.730;2023-03-24T05:14:51;10.80;99.90
36716;DHT22;22699;51.034;3.730;2023-03-24T05:17:18;10.80;99.90
36716;DHT22;22699;51.034;3.730;2023-03-24T05:19:43;10.80;99.90
36716;DHT22;22699;51.034;3.730;2023-03-24T05:22:09;10.80;99.90
36716;DHT22;22699;51.034;3.730;2023-03-24T05:24:36;10.80;99.90
36716;DHT22;22699;51.034;3.730;2023-03-24T05:27:02;10.90;99.90
36716;DHT22;22699;51.034;3.730;2023-03-24T05:29:32;10.90;99.90
36716;DHT22;22699;51.034;3.730;2023-03-24T05:32:00;10.80;99.90
36716;DHT22;22699;51.034;3.730;2023-03-24T05:34:25;10.80;99.90
36716;DHT22;22699;51.034;3.730;2023-03-24T05:36:57;10.80;99.90
36716;DHT22;22699;51.034;3.730;2023-03-24T05:39:44;10.90;99.90
36716;DHT22;22699;51.034;3.730;2023-03-24T05:42:15;11.00;99.90
36716;DHT22;22699;51.034;3.730;2023-03-24T05:44:52;11.00;99.90
36716;DHT22;22699;51.034;3.730;2023-03-24T05:47:18;11.00;99.90
36716;DHT22;22699;51.034;3.730;2023-03-24T05:49:48;11.10;99.90
36716;DHT22;22699;51.034;3.730;2023-03-24T05:52:18;11.00;99.90
36716;DHT22;22699;51.034;3.730;2023-03-24T05:55:05;11.10;99.90
36716;DHT22;22699;51.034;3.730;2023-03-24T05:57:34;11.10;99.90
36716;DHT22;22699;51.034;3.730;2023-03-24T06:00:06;11.10;99.90
36716;DHT22;22699;51.034;3.730;2023-03-24T06:02:41;11.20;99.90
36716;DHT22;22699;51.034;3.730;2023-03-24T06:05:09;11.30;99.90
36716;DHT22;22699;51.034;3.730;2023-03-24T06:07:36;11.30;99.90
36716;DHT22;22699;51.034;3.730;2023-03-24T06:10:15;11.30;99.90
36716;DHT22;22699;51.034;3.730;2023-03-24T06:12:49;11.30;99.90
36716;DHT22;22699;51.034;3.730;2023-03-24T06:15:25;11.80;99.90
36716;DHT22;22699;51.034;3.730;2023-03-24T06:17:53;11.40;99.90
36716;DHT22;22699;51.034;3.730;2023-03-24T06:20:22;11.40;99.90
36716;DHT22;22699;51.034;3.730;2023-03-24T06:22:49;11.50;99.90
36716;DHT22;22699;51.034;3.730;2023-03-24T06:25:30;11.50;99.90
36716;DHT22;22699;51.034;3.730;2023-03-24T06:28:16;11.50;99.90
36716;DHT22;22699;51.034;3.730;2023-03-24T06:30:47;11.50;99.90
36716;DHT22;22699;51.034;3.730;2023-03-24T06:33:15;11.60;99.90
36716;DHT22;22699;51.034;3.730;2023-03-24T06:35:41;11.50;99.90
36716;DHT22;22699;51.034;3.730;2023-03-24T06:38:10;11.50;99.90
36716;DHT22;22699;51.034;3.730;2023-03-24T06:40:37;11.50;99.90
36716;DHT22;22699;51.034;3.730;2023-03-24T06:43:09;11.50;99.90
36716;DHT22;22699;51.034;3.730;2023-03-24T06:45:46;11.50;99.90
36716;DHT22;22699;51.034;3.730;2023-03-24T06:48:19;11.50;99.90
36716;DHT22;22699;51.034;3.730;2023-03-24T06:50:45;11.50;99.90
36716;DHT22;22699;51.034;3.730;2023-03-24T06:53:11;11.50;99.90
36716;DHT22;22699;51.034;3.730;2023-03-24T06:55:42;11.40;99.90
36716;DHT22;22699;51.034;3.730;2023-03-24T06:58:08;11.60;99.90
36716;DHT22;22699;51.034;3.730;2023-03-24T07:00:38;11.70;99.90
36716;DHT22;22699;51.034;3.730;2023-03-24T07:03:09;11.80;99.90
36716;DHT22;22699;51.034;3.730;2023-03-24T07:05:40;11.60;99.90
36716;DHT22;22699;51.034;3.730;2023-03-24T07:08:11;11.40;99.90
36716;DHT22;22699;51.034;3.730;2023-03-24T07:11:03;11.50;99.90
36716;DHT22;22699;51.034;3.730;2023-03-24T07:13:40;11.70;99.90
36716;DHT22;22699;51.034;3.730;2023-03-24T07:16:22;11.80;99.90
36716;DHT22;22699;51.034;3.730;2023-03-24T07:19:10;11.80;99.90
36716;DHT22;22699;51.034;3.730;2023-03-24T07:21:42;11.90;99.90
36716;DHT22;22699;51.034;3.730;2023-03-24T07:24:32;11.90;99.90
36716;DHT22;22699;51.034;3.730;2023-03-24T07:27:21;12.00;99.90
36716;DHT22;22699;51.034;3.730;2023-03-24T07:36:46;11.70;99.90
36716;DHT22;22699;51.034;3.730;2023-03-24T07:41:50;11.90;99.90
36716;DHT22;22699;51.034;3.730;2023-03-24T07:44:27;12.00;99.90
36716;DHT22;22699;51.034;3.730;2023-03-24T07:46:55;12.20;99.90
36716;DHT22;22699;51.034;3.730;2023-03-24T07:49:28;12.30;99.90
36716;DHT22;22699;51.034;3.730;2023-03-24T07:52:03;12.70;99.90
36716;DHT22;22699;51.034;3.730;2023-03-24T07:54:37;12.60;99.90
36716;DHT22;22699;51.034;3.730;2023-03-24T07:57:10;12.90;99.90
36716;DHT22;22699;51.034;3.730;2023-03-24T07:59:38;13.20;99.90
36716;DHT22;22699;51.034;3.730;2023-03-24T08:02:21;13.40;99.90
36716;DHT22;22699;51.034;3.730;2023-03-24T08:04:52;13.40;99.90
36716;DHT22;22699;51.034;3.730;2023-03-24T08:07:19;13.40;99.90
36716;DHT22;22699;51.034;3.730;2023-03-24T08:09:52;13.50;99.90
36716;DHT22;22699;51.034;3.730;2023-03-24T08:12:19;13.00;99.90
36716;DHT22;22699;51.034;3.730;2023-03-24T08:14:49;12.70;99.90
36716;DHT22;22699;51.034;3.730;2023-03-24T08:17:20;12.70;99.90
36716;DHT22;22699;51.034;3.730;2023-03-24T08:19:50;12.50;99.90
36716;DHT22;22699;51.034;3.730;2023-03-24T08:22:22;12.50;99.90
36716;DHT22;22699;51.034;3.730;2023-03-24T08:24:58;12.60;99.90
36716;DHT22;22699;51.034;3.730;2023-03-24T08:27:33;13.10;99.90
36716;DHT22;22699;51.034;3.730;2023-03-24T08:30:04;12.80;99.90
36716;DHT22;22699;51.034;3.730;2023-03-24T08:32:53;12.90;99.90
36716;DHT22;22699;51.034;3.730;2023-03-24T08:35:40;13.30;99.90
36716;DHT22;22699;51.034;3.730;2023-03-24T08:38:10;13.50;99.90
36716;DHT22;22699;51.034;3.730;2023-03-24T08:40:40;13.60;99.90
36716;DHT22;22699;51.034;3.730;2023-03-24T08:43:28;13.50;99.90
36716;DHT22;22699;51.034;3.730;2023-03-24T08:45:58;13.40;99.90
36716;DHT22;22699;51.034;3.730;2023-03-24T08:48:39;12.80;99.90
36716;DHT22;22699;51.034;3.730;2023-03-24T08:51:22;13.80;99.90
36716;DHT22;22699;51.034;3.730;2023-03-24T08:54:03;14.70;99.90
36716;DHT22;22699;51.034;3.730;2023-03-24T08:57:13;14.40;99.90
36716;DHT22;22699;51.034;3.730;2023-03-24T09:00:21;14.10;99.90
36716;DHT22;22699;51.034;3.730;2023-03-24T09:03:33;13.40;99.90
36716;DHT22;22699;51.034;3.730;2023-03-24T09:06:13;13.20;99.90
36716;DHT22;22699;51.034;3.730;2023-03-24T09:08:44;13.60;99.90
36716;DHT22;22699;51.034;3.730;2023-03-24T09:11:21;14.10;99.90
36716;DHT22;22699;51.034;3.730;2023-03-24T09:14:02;14.10;99.90
36716;DHT22;22699;51.034;3.730;2023-03-24T09:16:34;14.40;99.90
36716;DHT22;22699;51.034;3.730;2023-03-24T09:19:05;14.80;99.90
36716;DHT22;22699;51.034;3.730;2023-03-24T09:21:58;14.50;99.90
36716;DHT22;22699;51.034;3.730;2023-03-24T09:24:26;14.30;99.90
36716;DHT22;22699;51.034;3.730;2023-03-24T09:26:52;13.90;99.90
36716;DHT22;22699;51.034;3.730;2023-03-24T09:29:36;14.00;99.90
36716;DHT22;22699;51.034;3.730;2023-03-24T09:32:25;14.00;99.90
36716;DHT22;22699;51.034;3.730;2023-03-24T09:34:54;14.10;99.90
36716;DHT22;22699;51.034;3.730;2023-03-24T09:38:07;13.60;99.90
36716;DHT22;22699;51.034;3.730;2023-03-24T09:41:00;13.30;99.90
36716;DHT22;22699;51.034;3.730;2023-03-24T09:44:07;13.20;99.90
36716;DHT22;22699;51.034;3.730;2023-03-24T09:50:57;12.70;99.90
36716;DHT22;22699;51.034;3.730;2023-03-24T09:56:51;12.70;99.90
36716;DHT22;22699;51.034;3.730;2023-03-24T10:02:25;12.30;99.90
36716;DHT22;22699;51.034;3.730;2023-03-24T10:04:59;12.10;99.90
36716;DHT22;22699;51.034;3.730;2023-03-24T10:07:51;11.70;99.90
36716;DHT22;22699;51.034;3.730;2023-03-24T10:10:33;11.70;99.90
36716;DHT22;22699;51.034;3.730;2023-03-24T10:13:07;11.70;99.90
36716;DHT22;22699;51.034;3.730;2023-03-24T10:21:51;11.60;99.90
36716;DHT22;22699;51.034;3.730;2023-03-24T10:27:36;11.50;99.90
36716;DHT22;22699;51.034;3.730;2023-03-24T10:33:21;11.60;99.90
36716;DHT22;22699;51.034;3.730;2023-03-24T10:36:32;11.90;99.90
36716;DHT22;22699;51.034;3.730;2023-03-24T10:39:52;11.60;99.90
36716;DHT22;22699;51.034;3.730;2023-03-24T10:42:39;11.70;99.90
36716;DHT22;22699;51.034;3.730;2023-03-24T10:45:31;11.70;99.90
36716;DHT22;22699;51.034;3.730;2023-03-24T10:48:12;11.80;99.90
36716;DHT22;22699;51.034;3.730;2023-03-24T10:50:42;11.90;99.90
36716;DHT22;22699;51.034;3.730;2023-03-24T10:53:20;12.00;99.90
36716;DHT22;22699;51.034;3.730;2023-03-24T10:55:54;12.30;99.90
36716;DHT22;22699;51.034;3.730;2023-03-24T10:58:42;12.40;99.90
36716;DHT22;22699;51.034;3.730;2023-03-24T11:01:31;12.60;99.90
36716;DHT22;22699;51.034;3.730;2023-03-24T11:04:04;12.50;99.90
36716;DHT22;22699;51.034;3.730;2023-03-24T11:06:35;12.60;99.90
36716;DHT22;22699;51.034;3.730;2023-03-24T11:09:21;13.00;99.90
36716;DHT22;22699;51.034;3.730;2023-03-24T11:11:52;13.10;99.90
36716;DHT22;22699;51.034;3.730;2023-03-24T11:14:25;13.20;99.90
36716;DHT22;22699;51.034;3.730;2023-03-24T11:17:09;13.30;99.90
36716;DHT22;22699;51.034;3.730;2023-03-24T11:19:38;13.50;99.90
36716;DHT22;22699;51.034;3.730;2023-03-24T11:22:10;13.90;99.90
36716;DHT22;22699;51.034;3.730;2023-03-24T11:24:37;13.90;99.90
36716;DHT22;22699;51.034;3.730;2023-03-24T11:27:04;13.90;99.90
36716;DHT22;22699;51.034;3.730;2023-03-24T11:29:48;13.90;99.90
36716;DHT22;22699;51.034;3.730;2023-03-24T11:32:26;13.60;99.90
36716;DHT22;22699;51.034;3.730;2023-03-24T11:35:06;13.90;99.90
36716;DHT22;22699;51.034;3.730;2023-03-24T11:37:43;13.80;99.90
36716;DHT22;22699;51.034;3.730;2023-03-24T11:40:32;13.80;99.90
36716;DHT22;22699;51.034;3.730;2023-03-24T11:43:02;13.40;99.90
36716;DHT22;22699;51.034;3.730;2023-03-24T11:45:39;13.30;99.90
36716;DHT22;22699;51.034;3.730;2023-03-24T11:48:52;13.10;99.90
36716;DHT22;22699;51.034;3.730;2023-03-24T11:51:37;12.90;99.90
36716;DHT22;22699;51.034;3.730;2023-03-24T11:54:15;12.80;99.90
36716;DHT22;22699;51.034;3.730;2023-03-24T11:56:44;12.70;99.90
36716;DHT22;22699;51.034;3.730;2023-03-24T12:05:43;13.70;99.90
36716;DHT22;22699;51.034;3.730;2023-03-24T12:08:42;13.50;99.90
36716;DHT22;22699;51.034;3.730;2023-03-24T12:17:23;13.80;99.90
36716;DHT22;22699;51.034;3.730;2023-03-24T12:22:59;14.40;99.90
36716;DHT22;22699;51.034;3.730;2023-03-24T12:29:21;13.80;99.90
36716;DHT22;22699;51.034;3.730;2023-03-24T12:50:02;13.30;99.90
36716;DHT22;22699;51.034;3.730;2023-03-24T12:56:13;13.60;99.90
36716;DHT22;22699;51.034;3.730;2023-03-24T12:59:03;13.80;99.90
36716;DHT22;22699;51.034;3.730;2023-03-24T13:02:07;13.80;99.90
36716;DHT22;22699;51.034;3.730;2023-03-24T13:04:39;14.10;99.90
36716;DHT22;22699;51.034;3.730;2023-03-24T13:07:14;14.30;99.90
36716;DHT22;22699;51.034;3.730;2023-03-24T13:10:14;14.30;99.90
36716;DHT22;22699;51.034;3.730;2023-03-24T13:16:08;14.20;99.90
36716;DHT22;22699;51.034;3.730;2023-03-24T13:18:52;14.10;99.90
36716;DHT22;22699;51.034;3.730;2023-03-24T13:25:30;14.10;99.90
36716;DHT22;22699;51.034;3.730;2023-03-24T13:28:08;14.30;99.90
36716;DHT22;22699;51.034;3.730;2023-03-24T13:30:37;14.50;99.90
36716;DHT22;22699;51.034;3.730;2023-03-24T13:33:19;14.60;99.90
36716;DHT22;22699;51.034;3.730;2023-03-24T13:38:57;14.50;99.90
36716;DHT22;22699;51.034;3.730;2023-03-24T13:41:32;14.50;99.90
36716;DHT22;22699;51.034;3.730;2023-03-24T13:44:21;14.60;99.90
36716;DHT22;22699;51.034;3.730;2023-03-24T13:47:13;14.70;99.90
36716;DHT22;22699;51.034;3.730;2023-03-24T13:49:59;14.80;99.90
36716;DHT22;22699;51.034;3.730;2023-03-24T13:52:50;14.80;99.90
36716;DHT22;22699;51.034;3.730;2023-03-24T13:55:25;14.60;99.90
36716;DHT22;22699;51.034;3.730;2023-03-24T13:57:58;14.60;99.90
36716;DHT22;22699;51.034;3.730;2023-03-24T14:00:27;14.90;99.90
36716;DHT22;22699;51.034;3.730;2023-03-24T14:03:33;15.10;99.90
36716;DHT22;22699;51.034;3.730;2023-03-24T14:06:04;15.00;99.90
36716;DHT22;22699;51.034;3.730;2023-03-24T14:08:52;14.80;99.90
36716;DHT22;22699;51.034;3.730;2023-03-24T14:14:20;14.80;99.90
36716;DHT22;22699;51.034;3.730;2023-03-24T14:19:42;14.30;99.90
36716;DHT22;22699;51.034;3.730;2023-03-24T14:22:13;14.10;99.90
36716;DHT22;22699;51.034;3.730;2023-03-24T14:24:42;14.20;99.90
36716;DHT22;22699;51.034;3.730;2023-03-24T14:27:30;14.30;99.90
36716;DHT22;22699;51.034;3.730;2023-03-24T14:30:04;14.10;99.90
36716;DHT22;22699;51.034;3.730;2023-03-24T14:32:37;13.90;99.90
36716;DHT22;22699;51.034;3.730;2023-03-24T14:37:56;13.90;99.90
36716;DHT22;22699;51.034;3.730;2023-03-24T14:40:48;13.80;99.90
36716;DHT22;22699;51.034;3.730;2023-03-24T14:43:21;13.80;99.90
36716;DHT22;22699;51.034;3.730;2023-03-24T14:45:59;13.90;99.90
36716;DHT22;22699;51.034;3.730;2023-03-24T14:48:33;14.00;99.90
36716;DHT22;22699;51.034;3.730;2023-03-24T14:51:07;14.10;99.90
36716;DHT22;22699;51.034;3.730;2023-03-24T14:53:43;14.30;99.90
36716;DHT22;22699;51.034;3.730;2023-03-24T14:56:18;14.50;99.90
36716;DHT22;22699;51.034;3.730;2023-03-24T14:59:04;14.50;99.90
36716;DHT22;22699;51.034;3.730;2023-03-24T15:01:41;14.50;99.90
36716;DHT22;22699;51.034;3.730;2023-03-24T15:04:15;14.60;99.90
36716;DHT22;22699;51.034;3.730;2023-03-24T15:07:10;14.70;99.90
36716;DHT22;22699;51.034;3.730;2023-03-24T15:09:48;14.60;99.90
36716;DHT22;22699;51.034;3.730;2023-03-24T15:12:15;14.60;99.90
36716;DHT22;22699;51.034;3.730;2023-03-24T15:15:17;14.70;99.90
36716;DHT22;22699;51.034;3.730;2023-03-24T15:17:45;15.00;99.90
36716;DHT22;22699;51.034;3.730;2023-03-24T15:20:26;15.10;99.90
36716;DHT22;22699;51.034;3.730;2023-03-24T15:22:52;14.80;99.90
36716;DHT22;22699;51.034;3.730;2023-03-24T15:25:27;14.70;99.90
36716;DHT22;22699;51.034;3.730;2023-03-24T15:27:54;14.60;99.90
36716;DHT22;22699;51.034;3.730;2023-03-24T15:30:21;14.70;99.90
36716;DHT22;22699;51.034;3.730;2023-03-24T15:32:46;14.80;99.90
36716;DHT22;22699;51.034;3.730;2023-03-24T15:35:21;14.70;99.90
36716;DHT22;22699;51.034;3.730;2023-03-24T15:37:52;14.60;99.90
36716;DHT22;22699;51.034;3.730;2023-03-24T15:43:18;14.40;99.90
36716;DHT22;22699;51.034;3.730;2023-03-24T15:45:52;14.40;99.90
36716;DHT22;22699;51.034;3.730;2023-03-24T15:48:31;14.60;99.90
36716;DHT22;22699;51.034;3.730;2023-03-24T15:50:59;14.60;99.90
36716;DHT22;22699;51.034;3.730;2023-03-24T15:54:16;14.80;99.90
36716;DHT22;22699;51.034;3.730;2023-03-24T15:56:27;15.00;99.90
36716;DHT22;22699;51.034;3.730;2023-03-24T15:58:56;15.10;99.40
36716;DHT22;22699;51.034;3.730;2023-03-24T16:01:40;14.90;99.40
36716;DHT22;22699;51.034;3.730;2023-03-24T16:04:31;14.80;99.50
36716;DHT22;22699;51.034;3.730;2023-03-24T16:07:03;14.80;99.40
36716;DHT22;22699;51.034;3.730;2023-03-24T16:09:37;14.80;99.50
36716;DHT22;22699;51.034;3.730;2023-03-24T16:12:11;14.80;99.30
36716;DHT22;22699;51.034;3.730;2023-03-24T16:14:36;14.80;99.40
36716;DHT22;22699;51.034;3.730;2023-03-24T16:17:05;14.70;99.30
36716;DHT22;22699;51.034;3.730;2023-03-24T16:19:31;14.70;99.30
36716;DHT22;22699;51.034;3.730;2023-03-24T16:21:57;14.70;99.20
36716;DHT22;22699;51.034;3.730;2023-03-24T16:24:32;14.80;99.20
36716;DHT22;22699;51.034;3.730;2023-03-24T16:26:57;14.80;99.20
36716;DHT22;22699;51.034;3.730;2023-03-24T16:29:24;14.80;99.10
36716;DHT22;22699;51.034;3.730;2023-03-24T16:31:51;14.90;99.10
36716;DHT22;22699;51.034;3.730;2023-03-24T16:34:18;14.90;99.00
36716;DHT22;22699;51.034;3.730;2023-03-24T16:36:50;14.70;98.90
36716;DHT22;22699;51.034;3.730;2023-03-24T16:39:24;14.60;99.90
36716;DHT22;22699;51.034;3.730;2023-03-24T16:41:49;14.40;99.90
36716;DHT22;22699;51.034;3.730;2023-03-24T16:44:15;14.30;99.90
36716;DHT22;22699;51.034;3.730;2023-03-24T16:46:49;14.20;99.90
36716;DHT22;22699;51.034;3.730;2023-03-24T16:49:17;14.20;99.90
36716;DHT22;22699;51.034;3.730;2023-03-24T16:51:44;14.30;99.90
36716;DHT22;22699;51.034;3.730;2023-03-24T16:54:11;14.20;99.80
36716;DHT22;22699;51.034;3.730;2023-03-24T16:56:37;14.40;99.40
36716;DHT22;22699;51.034;3.730;2023-03-24T16:59:03;14.30;99.40
36716;DHT22;22699;51.034;3.730;2023-03-24T17:01:30;14.10;99.30
36716;DHT22;22699;51.034;3.730;2023-03-24T17:04:04;14.20;99.20
36716;DHT22;22699;51.034;3.730;2023-03-24T17:06:34;14.30;99.20
36716;DHT22;22699;51.034;3.730;2023-03-24T17:09:00;14.40;98.40
36716;DHT22;22699;51.034;3.730;2023-03-24T17:11:54;14.30;98.30
36716;DHT22;22699;51.034;3.730;2023-03-24T17:14:21;14.10;98.90
36716;DHT22;22699;51.034;3.730;2023-03-24T17:16:49;14.10;99.00
36716;DHT22;22699;51.034;3.730;2023-03-24T17:19:19;14.00;99.40
36716;DHT22;22699;51.034;3.730;2023-03-24T17:21:51;14.10;99.30
36716;DHT22;22699;51.034;3.730;2023-03-24T17:24:19;14.10;99.30
36716;DHT22;22699;51.034;3.730;2023-03-24T17:26:45;14.10;99.50
36716;DHT22;22699;51.034;3.730;2023-03-24T17:29:12;14.00;99.50
36716;DHT22;22699;51.034;3.730;2023-03-24T17:31:38;14.00;99.50
36716;DHT22;22699;51.034;3.730;2023-03-24T17:34:04;14.00;99.80
36716;DHT22;22699;51.034;3.730;2023-03-24T17:36:29;14.00;99.90
36716;DHT22;22699;51.034;3.730;2023-03-24T17:38:58;13.90;99.90
36716;DHT22;22699;51.034;3.730;2023-03-24T17:41:24;13.80;99.80
36716;DHT22;22699;51.034;3.730;2023-03-24T17:43:51;13.80;99.60
36716;DHT22;22699;51.034;3.730;2023-03-24T17:46:17;13.70;99.50
36716;DHT22;22699;51.034;3.730;2023-03-24T17:48:44;13.80;99.70
36716;DHT22;22699;51.034;3.730;2023-03-24T17:51:11;13.60;99.80
36716;DHT22;22699;51.034;3.730;2023-03-24T17:53:39;13.50;99.90
36716;DHT22;22699;51.034;3.730;2023-03-24T17:56:05;13.50;99.90
36716;DHT22;22699;51.034;3.730;2023-03-24T17:58:33;13.50;99.90
36716;DHT22;22699;51.034;3.730;2023-03-24T18:01:01;13.40;99.90
36716;DHT22;22699;51.034;3.730;2023-03-24T18:03:27;13.40;99.90
36716;DHT22;22699;51.034;3.730;2023-03-24T18:05:54;13.20;99.90
36716;DHT22;22699;51.034;3.730;2023-03-24T18:08:21;13.10;99.90
36716;DHT22;22699;51.034;3.730;2023-03-24T18:10:47;12.90;99.90
36716;DHT22;22699;51.034;3.730;2023-03-24T18:13:12;12.80;99.90
36716;DHT22;22699;51.034;3.730;2023-03-24T18:15:40;12.80;99.90
36716;DHT22;22699;51.034;3.730;2023-03-24T18:18:07;12.80;99.90
36716;DHT22;22699;51.034;3.730;2023-03-24T18:20:33;12.80;99.90
36716;DHT22;22699;51.034;3.730;2023-03-24T18:23:01;12.70;99.90
36716;DHT22;22699;51.034;3.730;2023-03-24T18:25:27;12.70;99.90
36716;DHT22;22699;51.034;3.730;2023-03-24T18:27:53;12.70;99.90
36716;DHT22;22699;51.034;3.730;2023-03-24T18:30:21;12.70;99.90
36716;DHT22;22699;51.034;3.730;2023-03-24T18:32:52;12.70;99.90
36716;DHT22;22699;51.034;3.730;2023-03-24T18:35:17;12.80;99.90
36716;DHT22;22699;51.034;3.730;2023-03-24T18:37:43;12.70;99.90
36716;DHT22;22699;51.034;3.730;2023-03-24T18:40:11;12.80;99.90
36716;DHT22;22699;51.034;3.730;2023-03-24T18:42:37;12.70;99.90
36716;DHT22;22699;51.034;3.730;2023-03-24T18:45:05;12.50;99.90
36716;DHT22;22699;51.034;3.730;2023-03-24T18:47:31;12.60;99.90
36716;DHT22;22699;51.034;3.730;2023-03-24T18:49:56;12.60;99.90